createdAt,value
2023-05-19T00:00:31.822Z,96318.22
2023-05-19T00:05:41.121Z,96313.72
2023-05-19T00:10:44.649Z,96295.91
2023-05-19T00:15:47.564Z,96314.28
2023-05-19T00:20:51.524Z,96310.25
2023-05-19T00:25:54.428Z,96312.19
2023-05-19T00:30:56.800Z,96296.25
2023-05-19T00:35:59.503Z,96295.75
2023-05-19T00:41:03.524Z,96292.34
2023-05-19T00:46:07.616Z,96300.72
2023-05-19T00:51:14.894Z,96294.47
2023-05-19T00:56:18.836Z,96300.44
2023-05-19T01:01:21.992Z,96300.06
2023-05-19T01:06:25.847Z,96301.78
2023-05-19T01:11:28.757Z,96265.16
2023-05-19T01:16:40.692Z,96300.03
2023-05-19T01:21:58.509Z,96311.50
2023-05-19T01:27:25.526Z,96299.63
2023-05-19T01:32:30.204Z,96292.47
2023-05-19T01:37:33.702Z,96292.06
2023-05-19T01:42:40.288Z,96285.84
2023-05-19T01:47:45.622Z,96263.88
2023-05-19T01:52:48.529Z,96275.47
2023-05-19T01:58:03.022Z,96291.06
2023-05-19T02:03:08.952Z,96301.84
2023-05-19T02:08:30.763Z,96292.56
2023-05-19T02:13:41.520Z,96309.19
2023-05-19T02:18:45.810Z,96305.91
2023-05-19T02:23:49.059Z,96315.56
2023-05-19T02:28:51.884Z,96319.50
2023-05-19T02:33:54.693Z,96327.66
2023-05-19T02:38:57.153Z,96347.22
2023-05-19T02:44:00.293Z,96346.16
2023-05-19T02:49:03.038Z,96354.00
2023-05-19T02:54:05.873Z,96354.75
2023-05-19T02:59:08.709Z,96371.78
2023-05-19T03:04:11.579Z,96366.09
2023-05-19T03:09:14.816Z,96381.91
2023-05-19T03:14:18.955Z,96367.41
2023-05-19T03:19:21.776Z,96366.66
2023-05-19T03:24:24.621Z,96383.53
2023-05-19T03:29:27.264Z,96381.75
2023-05-19T03:34:30.347Z,96368.50
2023-05-19T03:39:33.856Z,96366.25
2023-05-19T03:44:36.668Z,96391.75
2023-05-19T03:49:39.691Z,96392.16
2023-05-19T03:55:00.716Z,96395.41
2023-05-19T04:00:05.495Z,96396.75
2023-05-19T04:05:14.528Z,96397.84
2023-05-19T04:10:17.229Z,96395.38
2023-05-19T04:15:20.001Z,96392.97
2023-05-19T04:20:22.935Z,96410.91
2023-05-19T04:25:28.491Z,96388.78
2023-05-19T04:30:31.475Z,96389.44
2023-05-19T04:35:34.826Z,96391.31
2023-05-19T04:40:38.227Z,96412.00
2023-05-19T04:45:42.812Z,96404.56
2023-05-19T04:50:49.386Z,96404.53
2023-05-19T04:55:51.990Z,96420.50
2023-05-19T05:00:58.931Z,96413.31
2023-05-19T05:06:03.592Z,96418.16
2023-05-19T05:11:06.831Z,96417.84
2023-05-19T05:16:11.606Z,96407.88
2023-05-19T05:21:15.264Z,96426.75
2023-05-19T05:26:19.886Z,96430.34
2023-05-19T05:31:25.256Z,96422.03
2023-05-19T05:36:28.399Z,96428.22
2023-05-19T05:41:35.579Z,96431.09
2023-05-19T05:46:45.341Z,96435.81
2023-05-19T05:52:01.906Z,96423.69
